createdAt,value
2023-05-03T00:02:24.727Z,4.90
2023-05-03T00:04:54.913Z,5.00
2023-05-03T00:07:23.040Z,4.95
2023-05-03T00:09:50.231Z,5.30
2023-05-03T00:12:17.255Z,6.70
2023-05-03T00:14:46.084Z,5.75
2023-05-03T00:17:13.425Z,6.63
2023-05-03T00:19:40.636Z,6.70
2023-05-03T00:22:07.760Z,6.55
2023-05-03T00:24:35.784Z,6.20
2023-05-03T00:27:06.946Z,5.50
2023-05-03T00:29:34.174Z,5.40
2023-05-03T00:32:02.211Z,6.50
2023-05-03T00:34:29.080Z,6.15
2023-05-03T00:36:56.134Z,6.47
2023-05-03T00:39:23.070Z,6.03
2023-05-03T00:41:50.074Z,5.75
2023-05-03T00:44:16.985Z,7.20
2023-05-03T00:46:44.049Z,6.38
2023-05-03T00:49:11.505Z,6.18
2023-05-03T00:51:38.495Z,7.03
2023-05-03T00:54:05.861Z,6.63
2023-05-03T00:56:40.994Z,7.20
2023-05-03T00:59:18.869Z,7.25
2023-05-03T01:01:51.057Z,6.70
2023-05-03T01:04:19.190Z,7.47
2023-05-03T01:07:10.807Z,7.25
2023-05-03T01:09:55.658Z,6.85
2023-05-03T01:12:35.032Z,7.13
2023-05-03T01:15:13.983Z,7.25
2023-05-03T01:17:50.704Z,7.00
2023-05-03T01:20:26.040Z,6.57
2023-05-03T01:23:31.268Z,7.82
2023-05-03T01:25:58.208Z,6.88
2023-05-03T01:28:25.612Z,6.88
2023-05-03T01:30:54.120Z,6.20
2023-05-03T01:33:49.109Z,6.65
2023-05-03T01:36:29.766Z,6.72
2023-05-03T01:38:57.537Z,6.70
2023-05-03T01:41:27.084Z,6.63
2023-05-03T01:43:55.760Z,6.55
2023-05-03T01:46:22.746Z,6.68
2023-05-03T01:48:49.650Z,6.82
2023-05-03T01:51:16.543Z,7.60
2023-05-03T01:53:43.445Z,6.28
2023-05-03T01:56:10.502Z,6.90
2023-05-03T01:58:37.419Z,6.22
2023-05-03T02:01:07.033Z,7.07
2023-05-03T02:03:35.066Z,6.20
2023-05-03T02:06:02.001Z,6.68
2023-05-03T02:08:29.149Z,6.55
2023-05-03T02:10:56.137Z,6.97
2023-05-03T02:13:23.067Z,6.78
2023-05-03T02:15:50.197Z,6.55
2023-05-03T02:18:17.459Z,6.10
2023-05-03T02:20:46.357Z,6.50
2023-05-03T02:23:13.732Z,6.70
2023-05-03T02:25:42.078Z,7.28
2023-05-03T02:28:09.103Z,6.15
2023-05-03T02:30:36.340Z,6.35
2023-05-03T02:33:03.398Z,6.75
2023-05-03T02:35:31.297Z,6.82
2023-05-03T02:37:58.245Z,6.63
2023-05-03T02:40:25.838Z,6.03
2023-05-03T02:42:53.711Z,7.00
2023-05-03T02:45:25.526Z,6.55
2023-05-03T02:47:52.577Z,6.38
2023-05-03T02:50:20.075Z,6.82
2023-05-03T02:52:47.476Z,6.90
2023-05-03T02:55:14.462Z,7.00
2023-05-03T02:57:44.738Z,6.78
2023-05-03T03:00:15.554Z,6.53
2023-05-03T03:02:43.248Z,6.75
2023-05-03T03:05:10.836Z,7.35
2023-05-03T03:07:39.999Z,7.07
2023-05-03T03:10:08.222Z,6.75
2023-05-03T03:12:38.760Z,7.45
2023-05-03T03:15:10.006Z,6.78
2023-05-03T03:17:40.017Z,7.38
2023-05-03T03:20:13.455Z,7.22
2023-05-03T03:22:45.574Z,6.57
2023-05-03T03:25:13.217Z,6.72
2023-05-03T03:27:40.482Z,7.82
2023-05-03T03:30:09.340Z,8.57
2023-05-03T03:32:44.152Z,9.85
2023-05-03T03:35:17.482Z,10.07
2023-05-03T03:37:44.494Z,9.25
2023-05-03T03:40:12.168Z,9.15
2023-05-03T03:42:40.721Z,9.70
2023-05-03T03:45:08.355Z,9.98
2023-05-03T03:47:35.479Z,10.20
2023-05-03T03:50:06.485Z,9.32
2023-05-03T03:52:35.272Z,9.20
2023-05-03T03:55:02.603Z,9.52
2023-05-03T03:57:31.616Z,9.60
2023-05-03T03:59:59.492Z,8.88
2023-05-03T04:02:28.630Z,9.80
2023-05-03T04:04:55.800Z,9.20
2023-05-03T04:07:22.934Z,9.13
2023-05-03T04:09:50.288Z,9.75
2023-05-03T04:12:17.896Z,9.48
2023-05-03T04:14:47.045Z,10.40
2023-05-03T04:17:14.333Z,13.73
2023-05-03T04:19:41.554Z,13.43
2023-05-03T04:22:09.398Z,14.07
2023-05-03T04:24:39.694Z,14.68
2023-05-03T04:27:08.908Z,14.60
2023-05-03T04:29:38.990Z,13.60
2023-05-03T04:32:07.827Z,12.27
2023-05-03T04:34:36.272Z,14.07
2023-05-03T04:37:05.296Z,13.27
2023-05-03T04:39:32.890Z,13.55
2023-05-03T04:42:02.217Z,14.38
2023-05-03T04:44:30.419Z,13.93
2023-05-03T04:46:59.864Z,13.65
2023-05-03T04:49:28.624Z,14.52
2023-05-03T04:51:56.403Z,13.90
2023-05-03T04:54:24.896Z,14.75
2023-05-03T04:56:52.660Z,12.98
2023-05-03T04:59:19.651Z,13.05
2023-05-03T05:01:47.529Z,13.85
2023-05-03T05:04:15.191Z,12.48
2023-05-03T05:06:47.958Z,12.73
2023-05-03T05:09:27.468Z,12.82
2023-05-03T05:11:57.517Z,14.48
2023-05-03T05:14:30.843Z,13.88
2023-05-03T05:16:58.755Z,14.13
2023-05-03T05:19:27.170Z,13.82
2023-05-03T05:21:54.392Z,13.88
2023-05-03T05:24:23.502Z,13.77
2023-05-03T05:26:51.116Z,14.32
2023-05-03T05:29:18.801Z,13.70
2023-05-03T05:31:45.926Z,14.02
2023-05-03T05:34:13.080Z,13.77
2023-05-03T05:36:41.044Z,13.70
2023-05-03T05:39:09.537Z,13.88
2023-05-03T05:41:36.520Z,13.68
2023-05-03T05:44:04.248Z,13.43
2023-05-03T05:46:31.841Z,13.13
2023-05-03T05:48:59.388Z,13.63
2023-05-03T05:51:27.955Z,13.43
2023-05-03T05:53:55.339Z,12.70
2023-05-03T05:56:23.637Z,13.55
2023-05-03T05:58:50.731Z,14.00
2023-05-03T06:01:17.673Z,13.90
2023-05-03T06:03:44.636Z,13.60
2023-05-03T06:06:11.641Z,13.90
2023-05-03T06:08:38.807Z,14.38
2023-05-03T06:11:05.934Z,13.90
2023-05-03T06:13:34.896Z,13.35
2023-05-03T06:16:03.609Z,12.93
2023-05-03T06:18:31.119Z,13.68
2023-05-03T06:20:58.214Z,13.02
2023-05-03T06:23:27.787Z,13.00
2023-05-03T06:25:56.101Z,12.75
2023-05-03T06:28:23.624Z,12.82
2023-05-03T06:30:53.845Z,12.88
2023-05-03T06:33:21.504Z,12.77
2023-05-03T06:35:51.257Z,12.10
2023-05-03T06:38:19.272Z,12.63
2023-05-03T06:40:47.072Z,13.27
2023-05-03T06:43:14.273Z,12.90
2023-05-03T06:45:53.012Z,13.13
2023-05-03T06:48:21.477Z,13.20
2023-05-03T06:50:48.609Z,12.68
2023-05-03T06:53:15.774Z,13.07
2023-05-03T06:55:46.325Z,12.18
2023-05-03T06:58:13.290Z,12.02
2023-05-03T07:00:40.759Z,12.13
2023-05-03T07:03:07.950Z,12.30
2023-05-03T07:05:35.411Z,11.13
2023-05-03T07:08:02.438Z,12.25
2023-05-03T07:10:31.310Z,11.98
2023-05-03T07:12:58.697Z,11.63
2023-05-03T07:15:25.873Z,12.00
2023-05-03T07:17:52.896Z,12.20
2023-05-03T07:20:19.991Z,11.23
2023-05-03T07:22:47.503Z,11.85
2023-05-03T07:25:17.823Z,11.85
2023-05-03T07:27:44.978Z,11.90
2023-05-03T07:30:12.250Z,11.45
2023-05-03T07:32:39.298Z,10.95
2023-05-03T07:35:07.937Z,11.20
2023-05-03T07:37:34.898Z,11.63
2023-05-03T07:40:01.957Z,11.73
2023-05-03T07:42:28.991Z,10.82
2023-05-03T07:44:55.945Z,11.02
2023-05-03T07:47:22.920Z,11.65
2023-05-03T07:49:50.910Z,11.13
2023-05-03T07:52:18.120Z,13.27
2023-05-03T07:54:46.021Z,11.18
2023-05-03T07:57:16.476Z,11.80
2023-05-03T07:59:43.521Z,11.25
2023-05-03T08:02:10.706Z,11.35
2023-05-03T08:04:37.788Z,11.23
2023-05-03T08:07:04.916Z,11.25
2023-05-03T08:09:31.864Z,11.95
2023-05-03T08:11:58.761Z,11.05
2023-05-03T08:14:25.940Z,11.50
2023-05-03T08:16:52.852Z,10.80
2023-05-03T08:19:19.802Z,11.43
2023-05-03T08:21:49.384Z,11.75
2023-05-03T08:24:16.554Z,10.38
2023-05-03T08:26:45.482Z,10.40
2023-05-03T08:29:12.536Z,9.18
2023-05-03T08:31:39.822Z,9.82
2023-05-03T08:34:08.084Z,10.15
2023-05-03T08:36:35.832Z,10.05
2023-05-03T08:39:06.522Z,9.70
2023-05-03T08:41:34.378Z,8.90
2023-05-03T08:44:04.786Z,9.57
2023-05-03T08:46:31.769Z,10.00
2023-05-03T08:49:00.030Z,10.32
2023-05-03T08:51:28.214Z,9.32
2023-05-03T08:53:55.313Z,9.18
2023-05-03T08:56:31.683Z,9.82
2023-05-03T08:59:07.339Z,9.63
2023-05-03T09:01:37.327Z,9.30
2023-05-03T09:04:04.985Z,8.25
2023-05-03T09:06:33.695Z,8.98
2023-05-03T09:09:01.935Z,8.80
2023-05-03T09:11:30.834Z,9.27
2023-05-03T09:14:14.012Z,8.85
2023-05-03T09:16:44.733Z,8.98
2023-05-03T09:19:13.433Z,8.73
2023-05-03T09:21:44.956Z,8.02
2023-05-03T09:24:17.779Z,8.55
2023-05-03T09:26:46.640Z,8.20
2023-05-03T09:29:32.760Z,8.65
2023-05-03T09:32:08.611Z,8.63
2023-05-03T09:34:35.886Z,7.85
2023-05-03T09:37:03.174Z,8.70
2023-05-03T09:39:30.593Z,8.60
2023-05-03T09:41:57.877Z,8.40
2023-05-03T09:44:54.361Z,7.53
2023-05-03T09:47:25.468Z,7.82
2023-05-03T09:49:52.741Z,7.40
2023-05-03T09:52:21.735Z,7.82
2023-05-03T09:54:49.986Z,7.50
2023-05-03T09:57:17.172Z,8.10
2023-05-03T09:59:46.245Z,7.18
2023-05-03T10:02:13.348Z,7.85
2023-05-03T10:04:57.113Z,7.22
2023-05-03T10:07:28.916Z,7.60
2023-05-03T10:09:58.134Z,7.78
2023-05-03T10:12:26.156Z,9.27
2023-05-03T10:14:55.582Z,8.77
2023-05-03T10:17:35.846Z,8.43
2023-05-03T10:20:36.065Z,11.52
2023-05-03T10:23:06.556Z,18.85
2023-05-03T10:25:36.379Z,6.63
2023-05-03T10:28:03.946Z,8.05
2023-05-03T10:30:39.502Z,6.60
2023-05-03T10:33:12.653Z,6.18
2023-05-03T10:35:41.054Z,7.15
2023-05-03T10:38:18.081Z,6.55
2023-05-03T10:40:45.041Z,6.97
2023-05-03T10:43:33.175Z,6.03
2023-05-03T10:46:01.041Z,5.57
2023-05-03T10:48:31.696Z,5.95
2023-05-03T10:51:28.615Z,6.13
2023-05-03T10:53:55.953Z,5.40
2023-05-03T10:56:24.100Z,6.22
2023-05-03T10:58:55.709Z,5.63
2023-05-03T11:01:24.793Z,5.65
2023-05-03T11:04:34.078Z,5.07
2023-05-03T11:07:01.793Z,4.93
2023-05-03T11:09:33.953Z,4.68
2023-05-03T11:12:05.528Z,5.03
2023-05-03T11:14:32.565Z,4.22
2023-05-03T11:16:59.843Z,4.55
2023-05-03T11:19:26.994Z,4.43
2023-05-03T11:21:54.112Z,3.83
2023-05-03T11:24:21.203Z,4.32
2023-05-03T11:26:48.928Z,4.10
2023-05-03T11:29:17.308Z,3.80
2023-05-03T11:31:44.628Z,3.97
2023-05-03T11:34:13.152Z,3.35
2023-05-03T11:36:42.028Z,3.47
2023-05-03T11:39:09.628Z,3.10
2023-05-03T11:41:37.183Z,2.90
2023-05-03T11:44:16.108Z,3.50
2023-05-03T11:50:53.538Z,3.00
2023-05-03T11:53:21.741Z,2.70
2023-05-03T11:55:50.545Z,2.80
2023-05-03T11:58:19.889Z,2.70
2023-05-03T12:00:48.438Z,3.00
2023-05-03T12:03:21.219Z,2.78
2023-05-03T12:05:50.597Z,2.70
2023-05-03T12:08:20.806Z,2.40
2023-05-03T12:10:54.477Z,2.88
2023-05-03T12:13:30.353Z,2.58
2023-05-03T12:18:55.982Z,2.22
2023-05-03T12:23:56.478Z,2.40
2023-05-03T12:26:26.363Z,2.92
2023-05-03T12:28:55.970Z,3.08
2023-05-03T12:31:24.065Z,2.80
2023-05-03T12:36:24.882Z,2.78
2023-05-03T12:38:56.176Z,2.60
2023-05-03T12:41:52.734Z,2.60
2023-05-03T12:44:16.743Z,2.85
2023-05-03T12:46:45.159Z,2.60
2023-05-03T12:49:15.129Z,2.72
2023-05-03T12:51:43.156Z,2.75
2023-05-03T12:54:11.790Z,2.63
2023-05-03T12:56:40.646Z,2.75
2023-05-03T12:59:39.328Z,2.65
2023-05-03T13:06:59.402Z,2.28
2023-05-03T13:09:38.012Z,2.50
2023-05-03T13:12:15.484Z,2.50
2023-05-03T13:14:42.991Z,2.72
2023-05-03T13:17:10.357Z,2.80
2023-05-03T13:19:37.786Z,2.13
2023-05-03T13:22:05.152Z,2.38
2023-05-03T13:24:32.331Z,2.35
2023-05-03T13:26:59.407Z,1.67
2023-05-03T13:29:26.846Z,2.00
2023-05-03T13:31:54.375Z,2.20
2023-05-03T13:34:21.667Z,1.85
2023-05-03T13:36:48.835Z,2.22
2023-05-03T13:39:16.476Z,2.15
2023-05-03T13:41:43.512Z,1.95
2023-05-03T13:44:11.692Z,1.80
2023-05-03T13:46:40.906Z,1.80
2023-05-03T13:49:08.497Z,1.90
2023-05-03T13:51:36.310Z,1.70
2023-05-03T13:54:04.918Z,1.70
2023-05-03T13:56:32.459Z,2.05
2023-05-03T13:58:59.408Z,2.08
2023-05-03T14:01:28.233Z,1.80
2023-05-03T14:03:55.918Z,1.80
2023-05-03T14:06:25.829Z,2.20
2023-05-03T14:08:57.907Z,1.55
2023-05-03T14:11:25.027Z,1.52
2023-05-03T14:13:57.120Z,1.42
2023-05-03T14:21:23.362Z,1.63
2023-05-03T14:23:51.208Z,1.42
2023-05-03T14:26:19.365Z,2.03
2023-05-03T14:28:46.555Z,1.58
2023-05-03T14:31:13.667Z,1.90
2023-05-03T14:33:40.695Z,1.60
2023-05-03T14:36:08.822Z,1.75
2023-05-03T14:38:37.289Z,1.80
2023-05-03T14:41:04.434Z,1.75
2023-05-03T14:43:32.479Z,2.53
2023-05-03T14:45:59.479Z,1.75
2023-05-03T14:48:26.494Z,1.58
2023-05-03T14:50:54.393Z,1.77
2023-05-03T14:53:22.574Z,1.83
2023-05-03T14:55:50.142Z,1.90
2023-05-03T14:58:17.213Z,1.85
2023-05-03T15:00:44.377Z,1.77
2023-05-03T15:03:12.497Z,1.70
2023-05-03T15:05:50.529Z,1.70
2023-05-03T15:08:19.400Z,2.00
2023-05-03T15:10:47.898Z,1.52
2023-05-03T15:13:16.490Z,1.70
2023-05-03T15:15:44.363Z,1.80
2023-05-03T15:18:13.602Z,1.75
2023-05-03T15:20:40.788Z,1.85
2023-05-03T15:23:07.923Z,1.83
2023-05-03T15:25:35.664Z,1.60
2023-05-03T15:28:04.443Z,1.88
2023-05-03T15:30:32.821Z,2.25
2023-05-03T15:33:01.180Z,1.90
2023-05-03T15:35:28.429Z,1.88
2023-05-03T15:37:55.620Z,1.90
2023-05-03T15:40:26.117Z,2.10
2023-05-03T15:43:02.704Z,2.08
2023-05-03T15:45:33.262Z,2.25
2023-05-03T15:48:00.439Z,2.00
2023-05-03T15:50:30.911Z,2.10
2023-05-03T15:52:58.218Z,2.00
2023-05-03T15:55:26.157Z,2.10
2023-05-03T15:57:53.370Z,2.28
2023-05-03T16:00:23.045Z,2.03
2023-05-03T16:02:50.344Z,2.15
2023-05-03T16:05:17.845Z,3.00
2023-05-03T16:07:44.991Z,3.72
2023-05-03T16:10:11.880Z,3.90
2023-05-03T16:12:38.923Z,3.10
2023-05-03T16:15:07.834Z,3.40
2023-05-03T16:17:35.660Z,2.97
2023-05-03T16:20:06.576Z,2.45
2023-05-03T16:22:33.985Z,2.88
2023-05-03T16:25:00.840Z,2.50
2023-05-03T16:27:28.181Z,2.28
2023-05-03T16:29:55.219Z,2.60
2023-05-03T16:32:22.327Z,2.30
2023-05-03T16:34:50.523Z,2.42
2023-05-03T16:37:17.689Z,2.65
2023-05-03T16:39:44.960Z,2.33
2023-05-03T16:42:12.133Z,2.40
2023-05-03T16:44:39.165Z,2.25
2023-05-03T16:47:17.986Z,2.40
2023-05-03T16:50:00.313Z,2.30
2023-05-03T16:52:45.672Z,2.50
2023-05-03T16:55:55.417Z,2.42
2023-05-03T16:58:47.271Z,2.47
2023-05-03T17:02:30.647Z,2.35
2023-05-03T17:05:16.118Z,2.40
2023-05-03T17:07:58.064Z,2.72
2023-05-03T17:10:28.893Z,2.40
2023-05-03T17:13:10.638Z,2.20
2023-05-03T17:15:43.383Z,2.70
2023-05-03T17:18:25.825Z,2.60
2023-05-03T17:21:01.740Z,3.10
2023-05-03T17:23:36.654Z,2.70
2023-05-03T17:26:16.046Z,3.20
2023-05-03T17:28:44.785Z,3.00
2023-05-03T17:31:15.837Z,2.53
2023-05-03T17:33:48.484Z,2.60
2023-05-03T17:36:21.512Z,2.70
2023-05-03T17:38:57.255Z,2.60
2023-05-03T17:41:30.179Z,2.53
2023-05-03T17:44:09.312Z,2.53
2023-05-03T17:46:53.856Z,2.50
2023-05-03T17:49:27.784Z,2.70
2023-05-03T17:52:00.820Z,2.63
2023-05-03T17:54:43.030Z,2.70
2023-05-03T17:57:10.335Z,2.70
2023-05-03T17:59:37.346Z,2.60
2023-05-03T18:02:04.814Z,2.75
2023-05-03T18:04:31.914Z,2.45
2023-05-03T18:06:59.546Z,2.38
2023-05-03T18:09:26.954Z,2.30
2023-05-03T18:11:56.629Z,2.30
2023-05-03T18:14:23.712Z,2.65
2023-05-03T18:16:51.907Z,2.30
2023-05-03T18:19:21.284Z,2.47
2023-05-03T18:21:49.440Z,2.38
2023-05-03T18:24:16.426Z,2.63
2023-05-03T18:26:43.751Z,2.45
2023-05-03T18:29:11.024Z,2.42
2023-05-03T18:31:38.012Z,2.20
2023-05-03T18:34:04.965Z,2.55
2023-05-03T18:36:32.206Z,2.50
2023-05-03T18:38:59.178Z,2.67
2023-05-03T18:41:26.185Z,2.50
2023-05-03T18:43:54.938Z,2.60
2023-05-03T18:46:21.978Z,2.60
2023-05-03T18:48:49.094Z,2.53
2023-05-03T18:51:16.593Z,2.38
2023-05-03T18:53:43.630Z,2.38
2023-05-03T18:56:10.572Z,2.55
2023-05-03T18:58:37.543Z,2.38
2023-05-03T19:01:05.621Z,2.55
2023-05-03T19:03:32.919Z,2.35
2023-05-03T19:06:04.184Z,2.30
2023-05-03T19:08:31.776Z,2.13
2023-05-03T19:11:07.607Z,2.35
2023-05-03T19:13:34.660Z,2.50
2023-05-03T19:16:02.414Z,2.47
2023-05-03T19:18:29.440Z,2.80
2023-05-03T19:20:57.280Z,2.75
2023-05-03T19:23:24.484Z,2.75
2023-05-03T19:25:51.683Z,2.63
2023-05-03T19:28:18.616Z,2.70
2023-05-03T19:30:46.179Z,3.25
2023-05-03T19:33:13.623Z,2.63
2023-05-03T19:35:41.027Z,2.60
2023-05-03T19:38:08.271Z,2.72
2023-05-03T19:40:35.315Z,2.50
2023-05-03T19:43:02.411Z,2.33
2023-05-03T19:45:29.472Z,2.75
2023-05-03T19:47:56.580Z,2.40
2023-05-03T19:50:23.577Z,2.70
2023-05-03T19:52:53.786Z,2.50
2023-05-03T19:55:21.334Z,2.13
2023-05-03T19:57:49.030Z,2.53
2023-05-03T20:00:27.536Z,2.60
2023-05-03T20:02:54.757Z,2.50
2023-05-03T20:05:21.781Z,2.55
2023-05-03T20:07:49.215Z,2.60
2023-05-03T20:10:16.256Z,2.70
2023-05-03T20:12:43.250Z,2.58
2023-05-03T20:15:11.862Z,2.60
2023-05-03T20:17:38.936Z,2.63
2023-05-03T20:20:12.798Z,2.80
2023-05-03T20:22:39.862Z,2.80
2023-05-03T20:25:07.286Z,2.65
2023-05-03T20:27:34.358Z,2.92
2023-05-03T20:30:01.913Z,2.58
2023-05-03T20:32:28.932Z,2.80
2023-05-03T20:34:56.028Z,2.75
2023-05-03T20:37:23.172Z,2.60
2023-05-03T20:39:50.004Z,2.63
2023-05-03T20:42:16.833Z,2.65
2023-05-03T20:44:43.809Z,2.88
2023-05-03T20:47:10.705Z,2.55
2023-05-03T20:49:40.000Z,2.60
2023-05-03T20:52:06.855Z,2.88
2023-05-03T20:54:33.794Z,2.80
2023-05-03T20:57:00.849Z,2.80
2023-05-03T20:59:27.819Z,2.90
2023-05-03T21:01:54.941Z,3.17
2023-05-03T21:04:22.991Z,2.80
2023-05-03T21:06:50.149Z,2.70
2023-05-03T21:09:17.307Z,3.00
2023-05-03T21:11:44.521Z,3.00
2023-05-03T21:14:11.978Z,3.10
2023-05-03T21:16:38.911Z,3.00
2023-05-03T21:19:06.273Z,3.00
2023-05-03T21:21:33.154Z,3.00
2023-05-03T21:24:00.507Z,2.70
2023-05-03T21:26:27.351Z,2.80
2023-05-03T21:28:54.259Z,2.78
2023-05-03T21:31:21.319Z,2.75
2023-05-03T21:33:48.242Z,2.78
2023-05-03T21:36:15.155Z,2.78
2023-05-03T21:38:42.058Z,3.20
2023-05-03T21:41:09.398Z,2.78
2023-05-03T21:43:36.775Z,2.83
2023-05-03T21:46:09.846Z,2.70
2023-05-03T21:48:37.410Z,3.00
2023-05-03T21:51:04.656Z,2.95
2023-05-03T21:53:31.751Z,3.28
2023-05-03T21:55:58.605Z,3.28
2023-05-03T21:58:26.096Z,2.90
2023-05-03T22:00:53.599Z,3.00
2023-05-03T22:03:20.690Z,3.00
2023-05-03T22:05:49.361Z,3.22
2023-05-03T22:08:18.601Z,2.83
2023-05-03T22:10:46.431Z,3.20
2023-05-03T22:13:13.454Z,3.00
2023-05-03T22:15:40.459Z,2.97
2023-05-03T22:18:07.588Z,2.75
2023-05-03T22:20:34.820Z,2.90
2023-05-03T22:23:01.813Z,3.10
2023-05-03T22:25:32.109Z,2.92
2023-05-03T22:27:59.646Z,2.80
2023-05-03T22:30:26.723Z,3.10
2023-05-03T22:32:53.991Z,3.00
2023-05-03T22:35:21.258Z,3.40
2023-05-03T22:37:48.279Z,3.30
2023-05-03T22:40:15.232Z,3.05
2023-05-03T22:42:42.391Z,2.90
2023-05-03T22:45:09.756Z,3.15
2023-05-03T22:47:36.731Z,3.08
2023-05-03T22:50:04.105Z,2.88
2023-05-03T22:52:31.927Z,3.08
2023-05-03T22:54:58.932Z,3.05
2023-05-03T22:57:26.278Z,2.95
2023-05-03T22:59:53.297Z,3.25
2023-05-03T23:02:20.614Z,3.45
2023-05-03T23:04:47.563Z,2.80
2023-05-03T23:07:15.369Z,3.05
2023-05-03T23:09:42.291Z,3.10
2023-05-03T23:12:09.210Z,2.90
2023-05-03T23:14:36.673Z,3.47
2023-05-03T23:17:03.543Z,3.88
2023-05-03T23:19:30.594Z,3.72
2023-05-03T23:21:57.818Z,3.70
2023-05-03T23:24:24.764Z,3.72
2023-05-03T23:26:51.958Z,3.30
2023-05-03T23:29:19.288Z,3.45
2023-05-03T23:31:46.822Z,3.35
2023-05-03T23:34:14.209Z,3.42
2023-05-03T23:36:41.210Z,3.10
2023-05-03T23:39:08.076Z,3.28
2023-05-03T23:41:35.054Z,3.15
2023-05-03T23:44:02.219Z,3.65
2023-05-03T23:46:29.242Z,3.70
2023-05-03T23:48:56.298Z,3.47
2023-05-03T23:51:23.303Z,3.38
2023-05-03T23:53:50.299Z,3.60
2023-05-03T23:56:17.545Z,3.50
2023-05-03T23:58:44.665Z,3.42
